sensor_id;sensor_type;location;lat;lon;timestamp;P1;durP1;ratioP1;P2;durP2;ratioP2
43519;SDS011;46848;51.980;5.918;2024-03-08T00:25:58;37.60;;;22.40;;
43519;SDS011;46848;51.980;5.918;2024-03-08T00:28:23;38.30;;;21.70;;
43519;SDS011;46848;51.980;5.918;2024-03-08T00:30:50;37.20;;;21.87;;
43519;SDS011;46848;51.980;5.918;2024-03-08T00:33:15;35.77;;;20.87;;
43519;SDS011;46848;51.980;5.918;2024-03-08T00:35:41;34.77;;;20.17;;
43519;SDS011;46848;51.980;5.918;2024-03-08T00:38:06;34.07;;;21.47;;
43519;SDS011;46848;51.980;5.918;2024-03-08T00:40:32;39.87;;;22.33;;
43519;SDS011;46848;51.980;5.918;2024-03-08T00:42:58;33.20;;;20.07;;
43519;SDS011;46848;51.980;5.918;2024-03-08T00:45:23;34.40;;;20.27;;
43519;SDS011;46848;51.980;5.918;2024-03-08T00:47:49;34.53;;;20.07;;
43519;SDS011;46848;51.980;5.918;2024-03-08T00:50:14;38.10;;;20.50;;
43519;SDS011;46848;51.980;5.918;2024-03-08T00:52:40;37.33;;;21.20;;
43519;SDS011;46848;51.980;5.918;2024-03-08T00:55:06;33.77;;;20.43;;
43519;SDS011;46848;51.980;5.918;2024-03-08T00:57:35;36.17;;;21.97;;
43519;SDS011;46848;51.980;5.918;2024-03-08T01:00:02;35.80;;;20.80;;
43519;SDS011;46848;51.980;5.918;2024-03-08T01:02:29;34.07;;;21.17;;
43519;SDS011;46848;51.980;5.918;2024-03-08T01:04:54;36.43;;;21.10;;
43519;SDS011;46848;51.980;5.918;2024-03-08T01:07:20;33.70;;;19.87;;
43519;SDS011;46848;51.980;5.918;2024-03-08T01:09:45;33.87;;;20.47;;
43519;SDS011;46848;51.980;5.918;2024-03-08T01:12:11;33.80;;;21.07;;
43519;SDS011;46848;51.980;5.918;2024-03-08T01:14:36;33.53;;;19.13;;
43519;SDS011;46848;51.980;5.918;2024-03-08T01:17:02;32.83;;;20.63;;
43519;SDS011;46848;51.980;5.918;2024-03-08T01:19:28;33.40;;;20.87;;
43519;SDS011;46848;51.980;5.918;2024-03-08T01:21:53;31.83;;;19.90;;
43519;SDS011;46848;51.980;5.918;2024-03-08T01:24:21;33.53;;;19.90;;
43519;SDS011;46848;51.980;5.918;2024-03-08T01:26:47;34.17;;;19.80;;
43519;SDS011;46848;51.980;5.918;2024-03-08T01:29:12;29.63;;;18.37;;
43519;SDS011;46848;51.980;5.918;2024-03-08T01:31:38;31.00;;;18.93;;
43519;SDS011;46848;51.980;5.918;2024-03-08T01:34:04;33.47;;;21.40;;
43519;SDS011;46848;51.980;5.918;2024-03-08T01:36:29;29.17;;;18.70;;
43519;SDS011;46848;51.980;5.918;2024-03-08T01:38:55;32.03;;;19.60;;
43519;SDS011;46848;51.980;5.918;2024-03-08T01:41:21;28.27;;;18.90;;
43519;SDS011;46848;51.980;5.918;2024-03-08T01:43:46;35.00;;;20.37;;
43519;SDS011;46848;51.980;5.918;2024-03-08T01:46:12;33.57;;;19.83;;
43519;SDS011;46848;51.980;5.918;2024-03-08T01:48:42;32.03;;;19.00;;
43519;SDS011;46848;51.980;5.918;2024-03-08T01:51:09;29.73;;;19.90;;
43519;SDS011;46848;51.980;5.918;2024-03-08T01:53:36;29.67;;;19.93;;
43519;SDS011;46848;51.980;5.918;2024-03-08T01:56:03;28.00;;;18.57;;
43519;SDS011;46848;51.980;5.918;2024-03-08T01:58:30;33.47;;;19.67;;
43519;SDS011;46848;51.980;5.918;2024-03-08T02:00:58;30.77;;;19.60;;
43519;SDS011;46848;51.980;5.918;2024-03-08T02:03:24;28.73;;;18.20;;
43519;SDS011;46848;51.980;5.918;2024-03-08T02:05:50;27.50;;;18.47;;
43519;SDS011;46848;51.980;5.918;2024-03-08T02:08:16;33.00;;;20.83;;
43519;SDS011;46848;51.980;5.918;2024-03-08T02:10:45;30.27;;;19.80;;
43519;SDS011;46848;51.980;5.918;2024-03-08T02:13:11;31.97;;;21.40;;
43519;SDS011;46848;51.980;5.918;2024-03-08T02:15:49;33.70;;;21.20;;
43519;SDS011;46848;51.980;5.918;2024-03-08T02:18:19;33.60;;;19.85;;
43519;SDS011;46848;51.980;5.918;2024-03-08T02:20:51;35.43;;;22.00;;
43519;SDS011;46848;51.980;5.918;2024-03-08T02:23:18;32.47;;;21.13;;
43519;SDS011;46848;51.980;5.918;2024-03-08T02:25:44;29.37;;;19.30;;
43519;SDS011;46848;51.980;5.918;2024-03-08T02:28:11;28.63;;;19.23;;
43519;SDS011;46848;51.980;5.918;2024-03-08T02:30:37;30.10;;;20.27;;
43519;SDS011;46848;51.980;5.918;2024-03-08T02:33:04;28.57;;;19.40;;
43519;SDS011;46848;51.980;5.918;2024-03-08T02:35:30;30.40;;;20.67;;
43519;SDS011;46848;51.980;5.918;2024-03-08T02:37:56;32.63;;;21.43;;
43519;SDS011;46848;51.980;5.918;2024-03-08T02:40:21;32.00;;;21.17;;
43519;SDS011;46848;51.980;5.918;2024-03-08T02:42:47;33.33;;;21.10;;
43519;SDS011;46848;51.980;5.918;2024-03-08T02:45:13;31.83;;;20.83;;
43519;SDS011;46848;51.980;5.918;2024-03-08T02:47:39;32.70;;;21.00;;
43519;SDS011;46848;51.980;5.918;2024-03-08T02:50:05;29.33;;;19.43;;
43519;SDS011;46848;51.980;5.918;2024-03-08T02:52:33;31.67;;;20.30;;
43519;SDS011;46848;51.980;5.918;2024-03-08T02:55:00;31.63;;;21.17;;
43519;SDS011;46848;51.980;5.918;2024-03-08T02:57:26;32.20;;;20.97;;
43519;SDS011;46848;51.980;5.918;2024-03-08T02:59:53;32.00;;;21.13;;
43519;SDS011;46848;51.980;5.918;2024-03-08T03:02:19;35.07;;;22.37;;
43519;SDS011;46848;51.980;5.918;2024-03-08T03:04:44;32.53;;;21.07;;
43519;SDS011;46848;51.980;5.918;2024-03-08T03:07:10;32.00;;;20.07;;
43519;SDS011;46848;51.980;5.918;2024-03-08T03:09:36;32.27;;;20.30;;
43519;SDS011;46848;51.980;5.918;2024-03-08T03:12:02;33.33;;;20.97;;
43519;SDS011;46848;51.980;5.918;2024-03-08T03:14:27;29.73;;;20.83;;
43519;SDS011;46848;51.980;5.918;2024-03-08T03:16:53;32.60;;;21.07;;
43519;SDS011;46848;51.980;5.918;2024-03-08T03:19:20;32.87;;;21.20;;
43519;SDS011;46848;51.980;5.918;2024-03-08T03:21:45;32.20;;;20.13;;
43519;SDS011;46848;51.980;5.918;2024-03-08T03:24:12;31.60;;;20.17;;
43519;SDS011;46848;51.980;5.918;2024-03-08T03:26:41;31.53;;;21.30;;
43519;SDS011;46848;51.980;5.918;2024-03-08T03:29:08;29.47;;;20.70;;
43519;SDS011;46848;51.980;5.918;2024-03-08T03:31:35;31.37;;;19.67;;
43519;SDS011;46848;51.980;5.918;2024-03-08T03:34:01;32.40;;;21.40;;
43519;SDS011;46848;51.980;5.918;2024-03-08T03:36:29;30.10;;;20.97;;
43519;SDS011;46848;51.980;5.918;2024-03-08T03:38:55;30.23;;;20.27;;
43519;SDS011;46848;51.980;5.918;2024-03-08T03:41:36;32.63;;;21.73;;
43519;SDS011;46848;51.980;5.918;2024-03-08T03:44:01;33.73;;;22.27;;
43519;SDS011;46848;51.980;5.918;2024-03-08T03:46:27;33.70;;;21.87;;
43519;SDS011;46848;51.980;5.918;2024-03-08T03:48:54;33.37;;;22.37;;
43519;SDS011;46848;51.980;5.918;2024-03-08T03:51:20;33.17;;;20.93;;
43519;SDS011;46848;51.980;5.918;2024-03-08T03:53:46;29.47;;;20.33;;
43519;SDS011;46848;51.980;5.918;2024-03-08T03:56:12;28.70;;;20.13;;
43519;SDS011;46848;51.980;5.918;2024-03-08T03:58:37;30.97;;;20.90;;
43519;SDS011;46848;51.980;5.918;2024-03-08T04:01:04;31.40;;;22.30;;
43519;SDS011;46848;51.980;5.918;2024-03-08T04:03:30;35.60;;;22.37;;
43519;SDS011;46848;51.980;5.918;2024-03-08T04:05:56;33.03;;;20.80;;
43519;SDS011;46848;51.980;5.918;2024-03-08T04:08:22;33.00;;;21.40;;
43519;SDS011;46848;51.980;5.918;2024-03-08T04:10:50;30.53;;;20.87;;
43519;SDS011;46848;51.980;5.918;2024-03-08T04:13:16;30.03;;;20.57;;
43519;SDS011;46848;51.980;5.918;2024-03-08T04:15:41;33.40;;;21.33;;
43519;SDS011;46848;51.980;5.918;2024-03-08T04:18:10;31.73;;;20.43;;
43519;SDS011;46848;51.980;5.918;2024-03-08T04:20:35;32.20;;;21.97;;
43519;SDS011;46848;51.980;5.918;2024-03-08T04:23:01;35.43;;;22.60;;
43519;SDS011;46848;51.980;5.918;2024-03-08T04:25:27;33.13;;;22.67;;
43519;SDS011;46848;51.980;5.918;2024-03-08T04:27:53;31.43;;;22.20;;
43519;SDS011;46848;51.980;5.918;2024-03-08T04:30:18;31.90;;;21.40;;
43519;SDS011;46848;51.980;5.918;2024-03-08T04:32:46;32.67;;;21.80;;
43519;SDS011;46848;51.980;5.918;2024-03-08T04:35:12;32.87;;;21.63;;
43519;SDS011;46848;51.980;5.918;2024-03-08T04:37:38;31.47;;;21.73;;
43519;SDS011;46848;51.980;5.918;2024-03-08T04:40:04;34.20;;;22.17;;
43519;SDS011;46848;51.980;5.918;2024-03-08T04:42:30;33.23;;;22.63;;
43519;SDS011;46848;51.980;5.918;2024-03-08T04:44:57;32.90;;;21.77;;
43519;SDS011;46848;51.980;5.918;2024-03-08T04:47:23;31.17;;;20.73;;
43519;SDS011;46848;51.980;5.918;2024-03-08T04:49:49;31.53;;;21.50;;
43519;SDS011;46848;51.980;5.918;2024-03-08T04:52:15;28.83;;;20.97;;
43519;SDS011;46848;51.980;5.918;2024-03-08T04:54:41;39.13;;;21.80;;
43519;SDS011;46848;51.980;5.918;2024-03-08T04:57:08;34.73;;;24.00;;
43519;SDS011;46848;51.980;5.918;2024-03-08T04:59:33;31.40;;;21.83;;
43519;SDS011;46848;51.980;5.918;2024-03-08T05:01:59;33.17;;;22.13;;
43519;SDS011;46848;51.980;5.918;2024-03-08T05:04:24;35.07;;;23.43;;
43519;SDS011;46848;51.980;5.918;2024-03-08T05:06:50;34.30;;;22.17;;
43519;SDS011;46848;51.980;5.918;2024-03-08T05:09:16;35.57;;;22.80;;
43519;SDS011;46848;51.980;5.918;2024-03-08T05:11:43;32.47;;;22.03;;
43519;SDS011;46848;51.980;5.918;2024-03-08T05:14:09;32.37;;;22.23;;
43519;SDS011;46848;51.980;5.918;2024-03-08T05:16:35;35.47;;;23.07;;
43519;SDS011;46848;51.980;5.918;2024-03-08T05:19:01;31.47;;;21.60;;
43519;SDS011;46848;51.980;5.918;2024-03-08T05:21:27;34.33;;;22.87;;
43519;SDS011;46848;51.980;5.918;2024-03-08T05:23:53;35.20;;;22.50;;
43519;SDS011;46848;51.980;5.918;2024-03-08T05:26:19;36.60;;;22.33;;
43519;SDS011;46848;51.980;5.918;2024-03-08T05:28:45;35.07;;;23.87;;
43519;SDS011;46848;51.980;5.918;2024-03-08T05:31:17;33.90;;;23.60;;
43519;SDS011;46848;51.980;5.918;2024-03-08T05:33:49;34.27;;;23.27;;
43519;SDS011;46848;51.980;5.918;2024-03-08T05:36:15;31.20;;;21.03;;
43519;SDS011;46848;51.980;5.918;2024-03-08T05:38:44;36.87;;;24.33;;
43519;SDS011;46848;51.980;5.918;2024-03-08T05:41:10;29.77;;;20.70;;
43519;SDS011;46848;51.980;5.918;2024-03-08T05:43:40;31.93;;;21.30;;
43519;SDS011;46848;51.980;5.918;2024-03-08T05:46:06;33.97;;;22.40;;
43519;SDS011;46848;51.980;5.918;2024-03-08T05:48:32;35.90;;;23.37;;
43519;SDS011;46848;51.980;5.918;2024-03-08T05:50:57;32.27;;;21.73;;
43519;SDS011;46848;51.980;5.918;2024-03-08T05:53:24;35.77;;;22.50;;
43519;SDS011;46848;51.980;5.918;2024-03-08T05:55:50;38.17;;;23.20;;
43519;SDS011;46848;51.980;5.918;2024-03-08T05:58:15;39.40;;;24.67;;
43519;SDS011;46848;51.980;5.918;2024-03-08T06:00:41;30.77;;;21.23;;
43519;SDS011;46848;51.980;5.918;2024-03-08T06:03:07;34.83;;;23.27;;
43519;SDS011;46848;51.980;5.918;2024-03-08T06:05:32;33.00;;;22.27;;
43519;SDS011;46848;51.980;5.918;2024-03-08T06:07:58;35.80;;;23.47;;
43519;SDS011;46848;51.980;5.918;2024-03-08T06:10:24;35.40;;;23.40;;
43519;SDS011;46848;51.980;5.918;2024-03-08T06:12:49;36.23;;;24.23;;
43519;SDS011;46848;51.980;5.918;2024-03-08T06:15:16;39.40;;;24.20;;
43519;SDS011;46848;51.980;5.918;2024-03-08T06:17:42;37.50;;;23.50;;
43519;SDS011;46848;51.980;5.918;2024-03-08T06:20:08;35.57;;;22.80;;
43519;SDS011;46848;51.980;5.918;2024-03-08T06:22:37;36.87;;;25.53;;
43519;SDS011;46848;51.980;5.918;2024-03-08T06:25:09;38.33;;;25.20;;
43519;SDS011;46848;51.980;5.918;2024-03-08T06:27:38;32.93;;;22.57;;
43519;SDS011;46848;51.980;5.918;2024-03-08T06:30:11;36.90;;;24.57;;
43519;SDS011;46848;51.980;5.918;2024-03-08T06:32:37;37.00;;;24.80;;
43519;SDS011;46848;51.980;5.918;2024-03-08T06:35:03;38.67;;;24.60;;
43519;SDS011;46848;51.980;5.918;2024-03-08T06:37:31;34.40;;;24.33;;
43519;SDS011;46848;51.980;5.918;2024-03-08T06:40:00;35.07;;;23.60;;
43519;SDS011;46848;51.980;5.918;2024-03-08T06:42:29;38.83;;;24.93;;
43519;SDS011;46848;51.980;5.918;2024-03-08T06:44:58;38.17;;;26.17;;
43519;SDS011;46848;51.980;5.918;2024-03-08T06:47:29;45.00;;;25.33;;
43519;SDS011;46848;51.980;5.918;2024-03-08T06:49:55;41.83;;;25.83;;
43519;SDS011;46848;51.980;5.918;2024-03-08T06:52:21;39.03;;;26.27;;
43519;SDS011;46848;51.980;5.918;2024-03-08T06:54:47;36.20;;;24.50;;
43519;SDS011;46848;51.980;5.918;2024-03-08T06:57:13;36.40;;;24.03;;
43519;SDS011;46848;51.980;5.918;2024-03-08T06:59:39;37.13;;;23.93;;
43519;SDS011;46848;51.980;5.918;2024-03-08T07:02:04;38.93;;;25.40;;
43519;SDS011;46848;51.980;5.918;2024-03-08T07:04:33;36.67;;;24.67;;
43519;SDS011;46848;51.980;5.918;2024-03-08T07:07:03;40.30;;;25.97;;
43519;SDS011;46848;51.980;5.918;2024-03-08T07:09:29;40.10;;;26.30;;
43519;SDS011;46848;51.980;5.918;2024-03-08T07:11:54;36.50;;;25.23;;
43519;SDS011;46848;51.980;5.918;2024-03-08T07:14:21;37.10;;;24.40;;
43519;SDS011;46848;51.980;5.918;2024-03-08T07:16:47;38.63;;;25.00;;
43519;SDS011;46848;51.980;5.918;2024-03-08T07:19:12;41.07;;;26.23;;
43519;SDS011;46848;51.980;5.918;2024-03-08T07:21:38;35.53;;;25.37;;
43519;SDS011;46848;51.980;5.918;2024-03-08T07:24:04;35.93;;;23.93;;
43519;SDS011;46848;51.980;5.918;2024-03-08T07:26:44;37.90;;;23.83;;
43519;SDS011;46848;51.980;5.918;2024-03-08T07:29:14;33.60;;;24.07;;
43519;SDS011;46848;51.980;5.918;2024-03-08T07:31:40;39.07;;;24.30;;
43519;SDS011;46848;51.980;5.918;2024-03-08T07:34:06;33.37;;;23.83;;
43519;SDS011;46848;51.980;5.918;2024-03-08T07:36:32;35.90;;;24.43;;
43519;SDS011;46848;51.980;5.918;2024-03-08T07:38:59;32.20;;;22.50;;
43519;SDS011;46848;51.980;5.918;2024-03-08T07:41:24;34.10;;;22.63;;
43519;SDS011;46848;51.980;5.918;2024-03-08T07:43:50;37.57;;;24.83;;
43519;SDS011;46848;51.980;5.918;2024-03-08T07:46:17;34.23;;;23.50;;
43519;SDS011;46848;51.980;5.918;2024-03-08T07:48:43;34.63;;;23.87;;
43519;SDS011;46848;51.980;5.918;2024-03-08T07:51:10;33.50;;;23.27;;
43519;SDS011;46848;51.980;5.918;2024-03-08T07:53:37;34.40;;;22.10;;
43519;SDS011;46848;51.980;5.918;2024-03-08T07:56:03;35.30;;;24.33;;
43519;SDS011;46848;51.980;5.918;2024-03-08T07:58:30;38.10;;;25.23;;
43519;SDS011;46848;51.980;5.918;2024-03-08T08:00:56;32.93;;;22.20;;
43519;SDS011;46848;51.980;5.918;2024-03-08T08:03:21;34.43;;;23.07;;
43519;SDS011;46848;51.980;5.918;2024-03-08T08:05:47;36.53;;;24.33;;
43519;SDS011;46848;51.980;5.918;2024-03-08T08:08:14;33.37;;;23.17;;
43519;SDS011;46848;51.980;5.918;2024-03-08T08:10:40;30.70;;;22.43;;
43519;SDS011;46848;51.980;5.918;2024-03-08T08:13:05;34.90;;;23.37;;
43519;SDS011;46848;51.980;5.918;2024-03-08T08:15:31;31.57;;;22.43;;
43519;SDS011;46848;51.980;5.918;2024-03-08T08:17:59;33.77;;;23.47;;
43519;SDS011;46848;51.980;5.918;2024-03-08T08:20:25;30.70;;;23.07;;
43519;SDS011;46848;51.980;5.918;2024-03-08T08:22:53;32.23;;;21.67;;
43519;SDS011;46848;51.980;5.918;2024-03-08T08:25:20;33.70;;;22.13;;
43519;SDS011;46848;51.980;5.918;2024-03-08T08:27:46;31.20;;;20.87;;
43519;SDS011;46848;51.980;5.918;2024-03-08T08:30:12;29.63;;;20.47;;
43519;SDS011;46848;51.980;5.918;2024-03-08T08:32:38;28.03;;;20.90;;
43519;SDS011;46848;51.980;5.918;2024-03-08T08:35:04;32.43;;;22.20;;
43519;SDS011;46848;51.980;5.918;2024-03-08T08:37:34;29.53;;;22.00;;
43519;SDS011;46848;51.980;5.918;2024-03-08T08:40:03;26.93;;;20.40;;
43519;SDS011;46848;51.980;5.918;2024-03-08T08:42:34;29.77;;;19.90;;
43519;SDS011;46848;51.980;5.918;2024-03-08T08:44:59;28.37;;;21.27;;
43519;SDS011;46848;51.980;5.918;2024-03-08T08:47:26;29.03;;;20.93;;
43519;SDS011;46848;51.980;5.918;2024-03-08T08:49:52;32.10;;;21.77;;
43519;SDS011;46848;51.980;5.918;2024-03-08T08:52:19;30.40;;;20.70;;
43519;SDS011;46848;51.980;5.918;2024-03-08T08:54:44;29.10;;;20.77;;
43519;SDS011;46848;51.980;5.918;2024-03-08T08:57:10;26.80;;;19.80;;
43519;SDS011;46848;51.980;5.918;2024-03-08T08:59:36;30.33;;;21.00;;
43519;SDS011;46848;51.980;5.918;2024-03-08T09:02:04;26.95;;;19.27;;
43519;SDS011;46848;51.980;5.918;2024-03-08T09:04:30;26.90;;;19.30;;
43519;SDS011;46848;51.980;5.918;2024-03-08T09:06:56;25.98;;;19.42;;
43519;SDS011;46848;51.980;5.918;2024-03-08T09:09:22;29.48;;;22.17;;
43519;SDS011;46848;51.980;5.918;2024-03-08T09:11:48;30.35;;;20.65;;
43519;SDS011;46848;51.980;5.918;2024-03-08T09:14:14;31.85;;;21.92;;
43519;SDS011;46848;51.980;5.918;2024-03-08T09:16:40;29.52;;;21.20;;
43519;SDS011;46848;51.980;5.918;2024-03-08T09:19:06;27.95;;;19.90;;
43519;SDS011;46848;51.980;5.918;2024-03-08T09:21:32;29.92;;;20.98;;
43519;SDS011;46848;51.980;5.918;2024-03-08T09:23:58;27.15;;;20.33;;
43519;SDS011;46848;51.980;5.918;2024-03-08T09:26:23;28.95;;;20.65;;
43519;SDS011;46848;51.980;5.918;2024-03-08T09:28:49;29.15;;;21.52;;
43519;SDS011;46848;51.980;5.918;2024-03-08T09:31:15;26.08;;;18.95;;
43519;SDS011;46848;51.980;5.918;2024-03-08T09:33:41;29.48;;;20.50;;
43519;SDS011;46848;51.980;5.918;2024-03-08T09:36:07;26.45;;;19.83;;
43519;SDS011;46848;51.980;5.918;2024-03-08T09:38:33;29.58;;;20.27;;
43519;SDS011;46848;51.980;5.918;2024-03-08T09:41:02;25.30;;;19.42;;
43519;SDS011;46848;51.980;5.918;2024-03-08T09:43:29;29.95;;;21.02;;
43519;SDS011;46848;51.980;5.918;2024-03-08T09:45:55;28.70;;;20.58;;
43519;SDS011;46848;51.980;5.918;2024-03-08T09:48:22;28.75;;;21.17;;
43519;SDS011;46848;51.980;5.918;2024-03-08T09:50:48;29.20;;;20.17;;
43519;SDS011;46848;51.980;5.918;2024-03-08T09:53:14;27.17;;;20.60;;
43519;SDS011;46848;51.980;5.918;2024-03-08T09:55:40;27.70;;;19.80;;
43519;SDS011;46848;51.980;5.918;2024-03-08T09:58:10;27.17;;;20.80;;
43519;SDS011;46848;51.980;5.918;2024-03-08T10:00:46;28.63;;;19.48;;
43519;SDS011;46848;51.980;5.918;2024-03-08T10:03:12;28.77;;;18.02;;
43519;SDS011;46848;51.980;5.918;2024-03-08T10:05:39;25.42;;;18.38;;
43519;SDS011;46848;51.980;5.918;2024-03-08T10:08:06;25.80;;;18.70;;
43519;SDS011;46848;51.980;5.918;2024-03-08T10:10:35;25.58;;;18.80;;
43519;SDS011;46848;51.980;5.918;2024-03-08T10:13:02;23.67;;;17.52;;
43519;SDS011;46848;51.980;5.918;2024-03-08T10:15:31;25.05;;;18.38;;
43519;SDS011;46848;51.980;5.918;2024-03-08T10:17:58;25.98;;;18.67;;
43519;SDS011;46848;51.980;5.918;2024-03-08T10:20:24;27.20;;;18.58;;
43519;SDS011;46848;51.980;5.918;2024-03-08T10:22:51;26.02;;;19.25;;
43519;SDS011;46848;51.980;5.918;2024-03-08T10:25:19;23.73;;;17.90;;
43519;SDS011;46848;51.980;5.918;2024-03-08T10:27:44;22.83;;;17.45;;
43519;SDS011;46848;51.980;5.918;2024-03-08T10:30:11;25.38;;;17.85;;
43519;SDS011;46848;51.980;5.918;2024-03-08T10:32:39;25.25;;;18.17;;
43519;SDS011;46848;51.980;5.918;2024-03-08T10:35:06;22.88;;;17.70;;
43519;SDS011;46848;51.980;5.918;2024-03-08T10:37:41;21.93;;;17.57;;
43519;SDS011;46848;51.980;5.918;2024-03-08T10:40:20;24.67;;;18.38;;
43519;SDS011;46848;51.980;5.918;2024-03-08T10:42:52;22.08;;;17.15;;
43519;SDS011;46848;51.980;5.918;2024-03-08T10:45:23;24.02;;;17.42;;
43519;SDS011;46848;51.980;5.918;2024-03-08T10:48:00;25.20;;;18.05;;
43519;SDS011;46848;51.980;5.918;2024-03-08T10:50:35;20.17;;;15.82;;
43519;SDS011;46848;51.980;5.918;2024-03-08T10:53:02;20.80;;;15.02;;
43519;SDS011;46848;51.980;5.918;2024-03-08T10:55:31;26.77;;;18.23;;
43519;SDS011;46848;51.980;5.918;2024-03-08T10:58:01;23.48;;;16.98;;
43519;SDS011;46848;51.980;5.918;2024-03-08T11:00:27;23.98;;;16.05;;
43519;SDS011;46848;51.980;5.918;2024-03-08T11:02:53;21.60;;;16.48;;
43519;SDS011;46848;51.980;5.918;2024-03-08T11:08:17;19.40;;;14.82;;
43519;SDS011;46848;51.980;5.918;2024-03-08T11:13:40;24.02;;;16.70;;
43519;SDS011;46848;51.980;5.918;2024-03-08T11:16:11;21.85;;;15.55;;
43519;SDS011;46848;51.980;5.918;2024-03-08T11:21:35;23.85;;;17.20;;
43519;SDS011;46848;51.980;5.918;2024-03-08T11:24:11;23.00;;;17.05;;
43519;SDS011;46848;51.980;5.918;2024-03-08T11:26:38;20.10;;;15.38;;
43519;SDS011;46848;51.980;5.918;2024-03-08T11:34:34;22.42;;;15.02;;
43519;SDS011;46848;51.980;5.918;2024-03-08T11:37:01;20.70;;;15.93;;
43519;SDS011;46848;51.980;5.918;2024-03-08T11:39:29;21.77;;;15.70;;
43519;SDS011;46848;51.980;5.918;2024-03-08T11:41:55;20.13;;;14.93;;
43519;SDS011;46848;51.980;5.918;2024-03-08T11:44:21;21.45;;;14.60;;
43519;SDS011;46848;51.980;5.918;2024-03-08T11:46:52;18.73;;;13.80;;
43519;SDS011;46848;51.980;5.918;2024-03-08T11:49:19;23.83;;;15.90;;
43519;SDS011;46848;51.980;5.918;2024-03-08T11:51:45;22.23;;;14.95;;
43519;SDS011;46848;51.980;5.918;2024-03-08T11:54:11;23.50;;;15.55;;
43519;SDS011;46848;51.980;5.918;2024-03-08T11:56:40;18.30;;;12.93;;
43519;SDS011;46848;51.980;5.918;2024-03-08T11:59:12;21.77;;;13.02;;
43519;SDS011;46848;51.980;5.918;2024-03-08T12:01:38;19.30;;;12.77;;
43519;SDS011;46848;51.980;5.918;2024-03-08T12:04:04;18.50;;;13.00;;
43519;SDS011;46848;51.980;5.918;2024-03-08T12:06:40;17.63;;;13.05;;
43519;SDS011;46848;51.980;5.918;2024-03-08T12:09:12;20.80;;;13.60;;
43519;SDS011;46848;51.980;5.918;2024-03-08T12:11:38;18.30;;;12.85;;
43519;SDS011;46848;51.980;5.918;2024-03-08T12:14:04;19.45;;;13.63;;
43519;SDS011;46848;51.980;5.918;2024-03-08T12:16:31;18.42;;;13.80;;
43519;SDS011;46848;51.980;5.918;2024-03-08T12:18:57;21.45;;;15.30;;
43519;SDS011;46848;51.980;5.918;2024-03-08T12:21:23;19.08;;;14.07;;
43519;SDS011;46848;51.980;5.918;2024-03-08T12:24:07;20.05;;;13.98;;
43519;SDS011;46848;51.980;5.918;2024-03-08T12:26:38;21.75;;;13.25;;
43519;SDS011;46848;51.980;5.918;2024-03-08T12:29:15;21.52;;;14.65;;
43519;SDS011;46848;51.980;5.918;2024-03-08T12:31:45;22.85;;;13.95;;
43519;SDS011;46848;51.980;5.918;2024-03-08T12:34:11;21.83;;;14.32;;
43519;SDS011;46848;51.980;5.918;2024-03-08T12:36:43;22.33;;;15.00;;
43519;SDS011;46848;51.980;5.918;2024-03-08T12:39:16;20.20;;;14.35;;
43519;SDS011;46848;51.980;5.918;2024-03-08T12:41:46;20.30;;;14.20;;
43519;SDS011;46848;51.980;5.918;2024-03-08T12:44:12;20.52;;;15.68;;
43519;SDS011;46848;51.980;5.918;2024-03-08T12:46:38;22.23;;;15.75;;
43519;SDS011;46848;51.980;5.918;2024-03-08T12:49:08;19.92;;;15.30;;
43519;SDS011;46848;51.980;5.918;2024-03-08T12:54:03;20.77;;;14.55;;
43519;SDS011;46848;51.980;5.918;2024-03-08T12:56:32;18.70;;;13.95;;
43519;SDS011;46848;51.980;5.918;2024-03-08T12:58:59;20.10;;;14.85;;
43519;SDS011;46848;51.980;5.918;2024-03-08T13:01:25;21.83;;;15.18;;
43519;SDS011;46848;51.980;5.918;2024-03-08T13:03:57;21.45;;;14.35;;
43519;SDS011;46848;51.980;5.918;2024-03-08T13:06:28;18.23;;;13.32;;
43519;SDS011;46848;51.980;5.918;2024-03-08T13:08:56;20.83;;;14.88;;
43519;SDS011;46848;51.980;5.918;2024-03-08T13:11:22;19.65;;;15.57;;
43519;SDS011;46848;51.980;5.918;2024-03-08T13:13:49;22.08;;;14.73;;
43519;SDS011;46848;51.980;5.918;2024-03-08T13:16:20;20.15;;;14.73;;
43519;SDS011;46848;51.980;5.918;2024-03-08T13:18:46;20.45;;;14.90;;
43519;SDS011;46848;51.980;5.918;2024-03-08T13:21:15;21.02;;;15.38;;
43519;SDS011;46848;51.980;5.918;2024-03-08T13:23:45;20.20;;;15.55;;
43519;SDS011;46848;51.980;5.918;2024-03-08T13:26:14;19.55;;;14.65;;
43519;SDS011;46848;51.980;5.918;2024-03-08T13:28:43;19.98;;;15.15;;
43519;SDS011;46848;51.980;5.918;2024-03-08T13:31:13;23.13;;;16.15;;
43519;SDS011;46848;51.980;5.918;2024-03-08T13:33:40;22.02;;;15.63;;
43519;SDS011;46848;51.980;5.918;2024-03-08T13:36:07;20.67;;;14.77;;
43519;SDS011;46848;51.980;5.918;2024-03-08T13:38:42;21.20;;;16.35;;
43519;SDS011;46848;51.980;5.918;2024-03-08T13:41:10;22.60;;;15.25;;
43519;SDS011;46848;51.980;5.918;2024-03-08T13:43:37;21.08;;;15.50;;
43519;SDS011;46848;51.980;5.918;2024-03-08T13:46:03;23.40;;;15.63;;
43519;SDS011;46848;51.980;5.918;2024-03-08T13:48:29;19.67;;;14.90;;
43519;SDS011;46848;51.980;5.918;2024-03-08T13:50:56;19.77;;;14.13;;
43519;SDS011;46848;51.980;5.918;2024-03-08T13:53:22;20.73;;;14.48;;
43519;SDS011;46848;51.980;5.918;2024-03-08T13:55:48;21.42;;;16.10;;
43519;SDS011;46848;51.980;5.918;2024-03-08T13:58:15;22.23;;;14.63;;
43519;SDS011;46848;51.980;5.918;2024-03-08T14:00:41;18.95;;;14.68;;
43519;SDS011;46848;51.980;5.918;2024-03-08T14:03:08;22.40;;;15.65;;
43519;SDS011;46848;51.980;5.918;2024-03-08T14:05:37;22.00;;;15.50;;
43519;SDS011;46848;51.980;5.918;2024-03-08T14:08:04;22.38;;;14.60;;
43519;SDS011;46848;51.980;5.918;2024-03-08T14:10:41;19.20;;;14.77;;
43519;SDS011;46848;51.980;5.918;2024-03-08T14:13:07;21.35;;;14.70;;
43519;SDS011;46848;51.980;5.918;2024-03-08T14:15:33;23.02;;;14.93;;
43519;SDS011;46848;51.980;5.918;2024-03-08T14:18:00;26.52;;;15.60;;
43519;SDS011;46848;51.980;5.918;2024-03-08T14:20:26;22.25;;;14.77;;
43519;SDS011;46848;51.980;5.918;2024-03-08T14:22:52;19.70;;;14.52;;
43519;SDS011;46848;51.980;5.918;2024-03-08T14:25:19;22.52;;;14.63;;
43519;SDS011;46848;51.980;5.918;2024-03-08T14:27:48;22.85;;;15.30;;
43519;SDS011;46848;51.980;5.918;2024-03-08T14:30:27;23.52;;;13.85;;
43519;SDS011;46848;51.980;5.918;2024-03-08T14:33:10;20.23;;;14.05;;
43519;SDS011;46848;51.980;5.918;2024-03-08T14:35:36;22.48;;;15.80;;
43519;SDS011;46848;51.980;5.918;2024-03-08T14:38:03;21.45;;;15.10;;
43519;SDS011;46848;51.980;5.918;2024-03-08T14:40:29;20.27;;;14.20;;
43519;SDS011;46848;51.980;5.918;2024-03-08T14:42:55;22.38;;;15.43;;
43519;SDS011;46848;51.980;5.918;2024-03-08T14:45:22;23.73;;;15.07;;
43519;SDS011;46848;51.980;5.918;2024-03-08T14:47:49;23.13;;;14.82;;
43519;SDS011;46848;51.980;5.918;2024-03-08T14:50:16;19.88;;;14.20;;
43519;SDS011;46848;51.980;5.918;2024-03-08T14:52:43;20.50;;;15.38;;
43519;SDS011;46848;51.980;5.918;2024-03-08T14:55:09;20.33;;;14.80;;
43519;SDS011;46848;51.980;5.918;2024-03-08T14:57:38;21.38;;;15.10;;
43519;SDS011;46848;51.980;5.918;2024-03-08T15:00:05;22.00;;;15.30;;
43519;SDS011;46848;51.980;5.918;2024-03-08T15:02:32;20.10;;;14.85;;